createdAt,value
2023-02-28T00:02:11.019Z,66.21
2023-02-28T00:07:13.114Z,66.44
2023-02-28T00:12:16.179Z,66.91
2023-02-28T00:17:23.025Z,66.77
2023-02-28T00:22:31.841Z,67.23
2023-02-28T00:27:35.574Z,67.05
2023-02-28T00:32:40.341Z,66.96
2023-02-28T00:37:43.647Z,67.26
2023-02-28T00:42:47.156Z,67.22
2023-02-28T00:47:51.002Z,67.18
2023-02-28T00:52:56.022Z,67.27
2023-02-28T00:57:58.211Z,67.62
2023-02-28T01:03:01.649Z,67.55
2023-02-28T01:08:04.636Z,68.16
2023-02-28T01:13:07.229Z,68.53
2023-02-28T01:18:12.309Z,68.44
2023-02-28T01:23:14.493Z,68.82
2023-02-28T01:28:17.302Z,68.41
2023-02-28T01:33:20.268Z,68.84
2023-02-28T01:38:23.650Z,68.42
2023-02-28T01:43:32.177Z,68.67
2023-02-28T01:48:41.023Z,68.49
2023-02-28T01:53:50.245Z,68.30
2023-02-28T01:58:53.941Z,68.45
2023-02-28T02:04:02.100Z,68.21
2023-02-28T02:09:04.661Z,68.44
2023-02-28T02:14:36.867Z,68.36
2023-02-28T02:20:14.060Z,68.35
2023-02-28T02:25:35.056Z,68.57
2023-02-28T02:31:04.573Z,68.01
2023-02-28T02:36:38.680Z,68.57
2023-02-28T02:41:51.457Z,68.68
2023-02-28T02:47:02.276Z,68.86
2023-02-28T02:52:12.031Z,68.87
2023-02-28T02:57:37.050Z,69.39
2023-02-28T03:02:42.461Z,69.36
2023-02-28T03:07:47.108Z,69.43
2023-02-28T03:13:01.647Z,70.25
2023-02-28T03:18:12.811Z,70.23
2023-02-28T03:23:20.559Z,70.44
2023-02-28T03:28:46.470Z,70.66
2023-02-28T03:33:56.464Z,70.83
2023-02-28T03:39:13.025Z,71.48
2023-02-28T03:44:25.978Z,71.51
2023-02-28T03:49:33.934Z,71.85
2023-02-28T03:54:45.503Z,72.18
2023-02-28T03:59:55.542Z,72.59
2023-02-28T04:04:57.825Z,72.88
2023-02-28T04:10:00.293Z,73.06
2023-02-28T04:15:02.311Z,73.50
2023-02-28T04:20:10.207Z,73.26
2023-02-28T04:25:12.789Z,73.37
2023-02-28T04:30:15.650Z,73.80
2023-02-28T04:35:18.679Z,73.66
2023-02-28T04:40:21.180Z,73.89
2023-02-28T04:45:23.863Z,73.80
2023-02-28T04:50:26.649Z,74.07
2023-02-28T04:55:29.134Z,74.19
2023-02-28T05:00:31.579Z,74.09
2023-02-28T05:05:33.849Z,74.43
2023-02-28T05:10:37.279Z,74.54
2023-02-28T05:15:39.157Z,74.62
2023-02-28T05:20:41.081Z,74.83
2023-02-28T05:25:43.400Z,74.76
2023-02-28T05:30:45.294Z,74.88
2023-02-28T05:35:48.055Z,74.92
2023-02-28T05:40:50.450Z,74.81
2023-02-28T05:45:52.617Z,75.29
2023-02-28T05:50:54.697Z,75.16
2023-02-28T05:55:57.907Z,74.96
2023-02-28T06:01:01.381Z,75.18
2023-02-28T06:06:03.476Z,75.24
2023-02-28T06:11:05.732Z,75.16
2023-02-28T06:16:09.036Z,75.16
2023-02-28T06:21:11.142Z,75.18
2023-02-28T06:26:13.132Z,75.56
2023-02-28T06:31:17.835Z,75.11
2023-02-28T06:36:19.931Z,75.11
2023-02-28T06:41:25.130Z,75.16
2023-02-28T06:46:27.221Z,75.41
2023-02-28T06:51:29.963Z,75.06
2023-02-28T06:56:32.335Z,75.07
2023-02-28T07:01:35.052Z,74.77
2023-02-28T07:06:39.417Z,75.02
2023-02-28T07:11:43.495Z,74.82
2023-02-28T07:16:46.658Z,74.39
2023-02-28T07:21:48.877Z,74.35
2023-02-28T07:26:50.846Z,74.56
2023-02-28T07:31:54.295Z,74.00
2023-02-28T07:36:56.736Z,73.84
2023-02-28T07:41:58.704Z,73.37
2023-02-28T07:47:01.304Z,73.31
2023-02-28T07:52:05.072Z,73.15
2023-02-28T07:57:07.082Z,72.53
2023-02-28T08:02:14.747Z,72.54
2023-02-28T08:07:18.147Z,72.15
2023-02-28T08:12:20.229Z,72.20
2023-02-28T08:17:22.191Z,71.80
2023-02-28T08:22:24.123Z,71.93
2023-02-28T08:27:26.111Z,71.50
2023-02-28T08:32:30.146Z,71.23
2023-02-28T08:37:32.592Z,70.93
2023-02-28T08:42:34.563Z,70.67
2023-02-28T08:47:36.501Z,70.27
2023-02-28T08:52:39.493Z,70.18
2023-02-28T08:57:50.987Z,69.13
2023-02-28T09:03:02.996Z,68.90
2023-02-28T09:08:05.169Z,68.61
2023-02-28T09:13:07.650Z,68.66
2023-02-28T09:18:09.878Z,68.00
2023-02-28T09:23:13.812Z,66.55
2023-02-28T09:28:18.835Z,66.02
2023-02-28T09:33:22.164Z,65.96
2023-02-28T09:38:24.241Z,65.72
2023-02-28T09:43:33.367Z,65.05
2023-02-28T09:48:41.273Z,64.35
2023-02-28T09:53:45.739Z,64.14
2023-02-28T09:58:59.822Z,64.07
2023-02-28T10:04:09.204Z,63.68
2023-02-28T10:09:25.665Z,64.22
2023-02-28T10:14:30.861Z,64.08
2023-02-28T10:19:43.901Z,63.48
2023-02-28T10:24:49.048Z,63.63
2023-02-28T10:29:53.637Z,63.63
2023-02-28T10:35:08.573Z,63.53
2023-02-28T10:40:36.643Z,62.85
2023-02-28T10:45:39.816Z,61.68
2023-02-28T10:50:48.026Z,61.84
2023-02-28T10:56:07.790Z,61.94
2023-02-28T11:01:16.309Z,60.94
2023-02-28T11:06:32.062Z,60.89
2023-02-28T11:11:44.283Z,60.88
2023-02-28T11:16:46.292Z,60.90
2023-02-28T11:21:57.772Z,60.21
2023-02-28T11:27:00.040Z,59.63
2023-02-28T11:32:14.541Z,59.57
2023-02-28T11:37:19.976Z,59.23
2023-02-28T11:42:46.759Z,59.62
2023-02-28T11:48:07.876Z,60.07
2023-02-28T11:53:35.327Z,59.98
2023-02-28T11:58:56.296Z,59.71
2023-02-28T12:04:11.048Z,59.65
2023-02-28T12:09:16.156Z,60.03
2023-02-28T12:14:56.476Z,59.30
2023-02-28T12:20:15.030Z,59.34
2023-02-28T12:25:29.772Z,59.18
2023-02-28T12:30:54.265Z,59.04
2023-02-28T12:36:00.786Z,59.31
2023-02-28T12:41:21.540Z,58.96
2023-02-28T12:46:51.918Z,58.73
2023-02-28T12:51:54.319Z,58.53
2023-02-28T12:57:19.737Z,58.67
2023-02-28T13:03:01.623Z,59.07
2023-02-28T13:08:41.936Z,58.67
2023-02-28T13:13:46.400Z,58.71
2023-02-28T13:18:49.648Z,59.11
2023-02-28T13:23:59.081Z,58.82
2023-02-28T13:29:11.029Z,58.81
2023-02-28T13:34:17.263Z,58.98
2023-02-28T13:39:40.584Z,58.41
2023-02-28T13:45:27.124Z,58.32
2023-02-28T13:50:39.648Z,58.26
2023-02-28T13:55:54.192Z,58.47
2023-02-28T14:01:07.098Z,58.40
2023-02-28T14:06:11.155Z,58.91
2023-02-28T14:11:45.321Z,58.94
2023-02-28T14:16:51.286Z,58.44
2023-02-28T14:22:23.090Z,58.38
2023-02-28T14:27:37.414Z,58.32
2023-02-28T14:33:10.354Z,58.69
2023-02-28T14:38:25.408Z,58.47
2023-02-28T14:43:29.713Z,58.48
2023-02-28T14:48:32.600Z,58.59
2023-02-28T14:53:38.680Z,58.43
2023-02-28T14:58:41.109Z,58.55
2023-02-28T15:03:45.839Z,58.72
2023-02-28T15:08:48.048Z,58.83
2023-02-28T15:13:53.172Z,58.85
2023-02-28T15:19:00.436Z,58.84
2023-02-28T15:24:34.855Z,59.06
2023-02-28T15:30:10.746Z,59.44
2023-02-28T15:35:41.904Z,59.78
2023-02-28T15:40:57.139Z,60.36
2023-02-28T15:46:07.506Z,60.41
2023-02-28T15:51:23.827Z,60.68
2023-02-28T15:56:30.550Z,60.87
2023-02-28T16:01:40.505Z,61.17
2023-02-28T16:06:45.499Z,61.77
2023-02-28T16:11:55.641Z,62.01
2023-02-28T16:17:06.661Z,62.38
2023-02-28T16:22:10.665Z,62.62
2023-02-28T16:27:23.749Z,63.07
2023-02-28T16:32:25.765Z,63.55
2023-02-28T16:37:28.325Z,63.58
2023-02-28T16:42:32.613Z,63.72
2023-02-28T16:47:35.189Z,63.52
2023-02-28T16:52:37.516Z,63.81
2023-02-28T16:57:41.243Z,64.06
2023-02-28T17:02:44.127Z,63.95
2023-02-28T17:07:47.996Z,64.32
2023-02-28T17:12:50.824Z,64.73
2023-02-28T17:17:52.784Z,64.80
2023-02-28T17:22:55.812Z,64.58
2023-02-28T17:27:58.239Z,64.64
2023-02-28T17:33:00.214Z,64.94
2023-02-28T17:38:02.660Z,65.41
2023-02-28T17:43:05.215Z,65.23
2023-02-28T17:48:07.815Z,65.46
2023-02-28T17:53:09.732Z,65.50
2023-02-28T17:58:13.709Z,65.70
2023-02-28T18:03:16.299Z,66.22
2023-02-28T18:08:18.310Z,66.01
2023-02-28T18:13:20.494Z,66.20
2023-02-28T18:18:22.747Z,66.54
2023-02-28T18:23:25.472Z,66.37
2023-02-28T18:28:28.031Z,66.84
2023-02-28T18:33:30.191Z,67.38
2023-02-28T18:38:34.461Z,67.59
2023-02-28T18:43:38.613Z,67.52
2023-02-28T18:48:41.768Z,68.49
2023-02-28T18:53:44.299Z,68.27
2023-02-28T18:58:46.741Z,68.45
2023-02-28T19:03:50.436Z,69.01
2023-02-28T19:08:59.704Z,69.08
2023-02-28T19:14:02.743Z,69.27
2023-02-28T19:19:05.686Z,69.38
2023-02-28T19:24:07.942Z,69.57
2023-02-28T19:29:10.273Z,70.17
2023-02-28T19:34:12.782Z,69.74
2023-02-28T19:39:15.090Z,70.14
2023-02-28T19:44:17.600Z,70.05
2023-02-28T19:49:19.552Z,70.38
2023-02-28T19:54:22.294Z,70.88
2023-02-28T19:59:35.793Z,70.76
2023-02-28T20:04:41.665Z,71.09
2023-02-28T20:09:45.701Z,71.03
2023-02-28T20:14:49.255Z,71.28
2023-02-28T20:19:51.925Z,71.40
2023-02-28T20:24:54.613Z,71.41
2023-02-28T20:30:09.686Z,71.16
2023-02-28T20:35:11.994Z,71.35
2023-02-28T20:40:14.500Z,71.42
2023-02-28T20:45:17.527Z,71.71
2023-02-28T20:50:20.246Z,71.68
2023-02-28T20:55:22.291Z,72.03
2023-02-28T21:00:26.492Z,71.99
2023-02-28T21:05:29.253Z,72.14
2023-02-28T21:10:32.523Z,71.93
2023-02-28T21:15:38.656Z,72.04
2023-02-28T21:20:40.701Z,72.01
2023-02-28T21:25:43.632Z,72.42
2023-02-28T21:30:45.994Z,72.86
2023-02-28T21:35:48.813Z,72.74
2023-02-28T21:40:51.488Z,72.87
2023-02-28T21:45:53.998Z,73.12
2023-02-28T21:51:04.339Z,73.17
2023-02-28T21:56:11.395Z,73.42
2023-02-28T22:01:15.409Z,73.55
2023-02-28T22:06:24.410Z,73.80
2023-02-28T22:11:27.996Z,74.01
2023-02-28T22:16:44.168Z,74.06
2023-02-28T22:21:53.881Z,74.22
2023-02-28T22:26:56.234Z,74.68
2023-02-28T22:31:58.441Z,74.88
2023-02-28T22:37:01.168Z,75.25
2023-02-28T22:42:03.719Z,75.69
2023-02-28T22:47:07.412Z,75.87
2023-02-28T22:52:11.375Z,75.48
2023-02-28T22:57:14.649Z,75.70
2023-02-28T23:02:16.667Z,75.69
2023-02-28T23:07:19.012Z,75.74
2023-02-28T23:12:21.642Z,75.76
2023-02-28T23:17:23.912Z,75.92
2023-02-28T23:22:25.875Z,75.96
2023-02-28T23:27:28.574Z,76.09
2023-02-28T23:32:30.949Z,75.86
2023-02-28T23:37:34.404Z,76.14
2023-02-28T23:42:37.568Z,76.16
2023-02-28T23:47:39.549Z,76.13
2023-02-28T23:52:41.967Z,76.01
2023-02-28T23:57:44.554Z,76.13
